SpazioLink.com il tuo mini portale

Terremoti in Italia, posizione geografica

Spaziolink il MiniPortale

Home Sfondi Cerca SuperEnalotto Posizione navi Terremoti Directory Video Forum Giochi Meteo Gifs Software
Lista dei terremoti in Italia in tempo reale dopo l'elaborazione dei valori rilevati dai sensori dislocati nelle zone interessate, comprendenti gli eventi sismici di elevata magnitudo sull'intero globo terrącqueo, per visualizzare la posizione dell'epicentro su Google Maps cliccare sul nome del luogo evidenziato in blu.
DATA ORA MAG ≥ 2 ZONA REGIONE LAT LONG PROF km
18/01/2019 20:04:09 ML 3.2 Costa Calabra nord-occidentale (Cosenza) ----- 39.23 15.78 221.5
18/01/2019 19:49:05 ML 2.3 5 km a ovest di Campotosto (AQ) Abruzzo 42.58 13.31  13.3
18/01/2019 14:18:35 Mwp 6.1 Vanuatu Islands (Sea: Vanuatu) ----- -19.13 168.74  72.7
18/01/2019 09:10:24 ML 2.1 Costa Calabra sud-occidentale (Catanzaro, Vibo Valentia, Reggio di Calabria) Calabria 38.89 15.78 109.3
17/01/2019 16:06:41 Mwp 6.0 Papua New Guinea (Sea) ----- -3.47 146.07  10.2
17/01/2019 08:15:56 ML 2.2 5 km a ovest di Ravenna (RA) Emilia Romagna 44.40 12.14  21.0
17/01/2019 03:46:36 ML 2.0 5 km a sud-est di Bocchigliero (CS) Calabria 39.38 16.78  28.4
17/01/2019 03:19:23 ML 3.3 4 km a sud-ovest di Campana (CS) Calabria 39.39 16.79  29.3
16/01/2019 15:41:59 ML 2.2 1 km a est di Falerone (FM) Marche 43.11 13.49  26.5
16/01/2019 14:36:57 ML 2.0 6 km a ovest di Sillano Giuncugnano (LU) Toscana 44.24 10.23  11.1
16/01/2019 13:10:54 ML 2.2 4 km a est di Zignago (SP) Liguria 44.29 9.79   9.9
16/01/2019 11:47:12 ML 2.0 4 km a sud-ovest di Caldarola (MC) Marche 43.11 13.19   5.2
16/01/2019 03:48:42 ML 2.0 3 km a sud-ovest di Caldarola (MC) Marche 43.12 13.20   8.7
15/01/2019 19:31:04 ML 2.4 3 km a ovest di Moggio Udinese (UD) Friuli Venezia Giulia 46.42 13.16  10.4
15/01/2019 19:06:34 Mwp 6.7 Vanuatu Islands (Sea: Vanuatu) ----- -13.20 166.72  19.5
15/01/2019 14:29:57 ML 2.0 8 km a nord-ovest di Accumoli (RI) Lazio 42.75 13.19  10.4
15/01/2019 14:27:21 ML 2.6 8 km a sud-est di Norcia (PG) Umbria 42.76 13.17   9.4
15/01/2019 13:21:32 ML 2.6 5 km a nord-ovest di Nocera Umbra (PG) Umbria 43.16 12.77  10.0
15/01/2019 11:00:44 ML 2.0 3 km a nord di Castroreale (ME) Sicilia 38.12 15.21  11.8
15/01/2019 06:57:17 ML 2.2 2 km a sud-est di Preci (PG) Umbria 42.86 13.05   9.7
15/01/2019 04:57:28 ML 2.0 6 km nord-est Russi (RA) Emilia Romagna 44.41 12.10  22.9
15/01/2019 04:44:13 ML 2.0 7 km a sud-ovest di Ravenna (RA) Emilia Romagna 44.37 12.15  20.5
15/01/2019 01:45:40 ML 2.2 Costa Ravennate (Ravenna) Emilia Romagna 44.48 12.29  11.4
15/01/2019 00:29:07 ML 3.0 9 km a nord-ovest di Cervia (RA) Emilia Romagna 44.33 12.29  22.0
15/01/2019 00:03:57 Mw 4.3 10 km a sud-est di Ravenna (RA) Emilia Romagna 44.35 12.29  20.6
14/01/2019 20:19:31 ML 2.6 Tirreno Meridionale (MARE) ----- 38.84 15.50 219.1
14/01/2019 15:23:39 ML 2.2 6 km a sud di Bronte (CT) Sicilia 37.73 14.84  15.1
14/01/2019 12:50:42 ML 2.3 3 km a est di San Severino Marche (MC) Marche 43.22 13.22  23.3
14/01/2019 11:37:21 ML 2.0 4 km a sud di Zafferana Etnea (CT) Sicilia 37.66 15.10   0.7
14/01/2019 10:19:36 ML 2.0 6 km a est di Pavullo nel Frignano (MO) Emilia Romagna 44.34 10.92  14.7
14/01/2019 06:16:02 ML 2.0 4 km nord-est Serravalle di Chienti (MC) Marche 43.10 12.99  10.9
13/01/2019 21:29:16 ML 2.5 2 km a est di Capitignano (AQ) Abruzzo 42.53 13.33  14.2
13/01/2019 17:11:55 ML 2.1 6 km a sud-est di Bronte (CT) Sicilia 37.74 14.86   8.8
13/01/2019 12:39:59 ML 2.3 7 km a sud-est di Bronte (CT) Sicilia 37.73 14.87   6.8
13/01/2019 12:02:11 ML 2.4 4 km a nord-ovest di San Marco in Lamis (FG) Puglia 41.74 15.62  21.0
13/01/2019 09:33:07 ML 2.3 5 km nord-est Soverzene (BL) Veneto 46.23 12.36   8.8
13/01/2019 09:05:34 ML 2.4 5 km a ovest di Arquata del Tronto (AP) Marche 42.76 13.23  12.8
13/01/2019 08:22:36 ML 2.4 7 km a sud-est di Bronte (CT) Sicilia 37.73 14.87   9.3
13/01/2019 07:59:48 ML 2.0 Tirreno Meridionale (MARE) ----- 39.02 15.42  81.2
13/01/2019 03:56:21 ML 2.4 7 km a sud-est di Bronte (CT) Sicilia 37.74 14.88   4.5
12/01/2019 23:37:14 ML 2.4 1 km a sud di Strongoli (KR) Calabria 39.26 17.05  19.2
12/01/2019 20:11:37 ML 2.3 1 km a nord-ovest di Biancavilla (CT) Sicilia 37.65 14.86   7.2
12/01/2019 13:59:26 ML 2.3 3 km a est di Cortale (CZ) Calabria 38.85 16.45   9.6
12/01/2019 12:20:33 ML 3.6 Tirreno Meridionale (MARE) ----- 39.31 15.42 279.8
12/01/2019 10:01:36 ML 2.1 8 km a ovest di Scoppito (AQ) Abruzzo 42.36 13.16  10.3
- traduzioni - freegames - frasi - subnet mask - partners - ipcheck - spazioinizio - pagerank - wi-fi - barzellette - favicon - speedtest - programmone - screenmates -
Locations of visitors to this page